sensor_id;sensor_type;location;lat;lon;timestamp;pressure;altitude;pressure_sealevel;temperature;humidity
63033;BME280;49121;38.932;-9.018;2023-02-28T00:00:21;111992.50;;;-145.11;69.91
63033;BME280;49121;38.932;-9.018;2023-02-28T00:02:22;111992.50;;;-145.11;70.42
63033;BME280;49121;38.932;-9.018;2023-02-28T00:04:22;111992.50;;;-145.11;70.07
63033;BME280;49121;38.932;-9.018;2023-02-28T00:06:24;111992.50;;;-145.11;69.85
63033;BME280;49121;38.932;-9.018;2023-02-28T00:08:24;111992.50;;;-145.11;69.63
63033;BME280;49121;38.932;-9.018;2023-02-28T00:10:27;111992.50;;;-145.11;68.69
63033;BME280;49121;38.932;-9.018;2023-02-28T00:12:28;111992.50;;;-145.11;67.89
63033;BME280;49121;38.932;-9.018;2023-02-28T00:14:30;111992.50;;;-145.11;67.30
63033;BME280;49121;38.932;-9.018;2023-02-28T00:16:30;111992.50;;;-145.11;67.26
63033;BME280;49121;38.932;-9.018;2023-02-28T00:18:31;111992.50;;;-145.11;67.72
63033;BME280;49121;38.932;-9.018;2023-02-28T00:20:32;111992.50;;;-145.11;67.34
63033;BME280;49121;38.932;-9.018;2023-02-28T00:22:32;111992.50;;;-145.11;66.67
63033;BME280;49121;38.932;-9.018;2023-02-28T00:24:33;111992.50;;;-145.11;67.23
63033;BME280;49121;38.932;-9.018;2023-02-28T00:26:33;111992.50;;;-145.11;67.63
63033;BME280;49121;38.932;-9.018;2023-02-28T00:28:34;111992.50;;;-145.11;67.59
63033;BME280;49121;38.932;-9.018;2023-02-28T00:30:35;111992.50;;;-145.11;67.64
63033;BME280;49121;38.932;-9.018;2023-02-28T00:32:39;111992.50;;;-145.11;68.08
63033;BME280;49121;38.932;-9.018;2023-02-28T00:34:40;111992.50;;;-145.11;68.69
63033;BME280;49121;38.932;-9.018;2023-02-28T00:36:42;111992.50;;;-145.11;69.29
63033;BME280;49121;38.932;-9.018;2023-02-28T00:38:45;111992.50;;;-145.11;69.65
63033;BME280;49121;38.932;-9.018;2023-02-28T00:40:46;111992.50;;;-145.11;70.46
63033;BME280;49121;38.932;-9.018;2023-02-28T00:42:46;111992.50;;;-145.11;71.07
63033;BME280;49121;38.932;-9.018;2023-02-28T00:44:47;111992.50;;;-145.11;71.75
63033;BME280;49121;38.932;-9.018;2023-02-28T00:46:48;111992.50;;;-145.11;72.36
63033;BME280;49121;38.932;-9.018;2023-02-28T00:48:48;111992.50;;;-145.11;72.73
63033;BME280;49121;38.932;-9.018;2023-02-28T00:50:49;111992.50;;;-145.11;73.37
63033;BME280;49121;38.932;-9.018;2023-02-28T00:52:53;111992.50;;;-145.11;74.11
63033;BME280;49121;38.932;-9.018;2023-02-28T00:54:57;111992.50;;;-145.11;74.80
63033;BME280;49121;38.932;-9.018;2023-02-28T00:56:58;111992.50;;;-145.11;74.91
63033;BME280;49121;38.932;-9.018;2023-02-28T00:58:59;111992.50;;;-145.11;75.52
63033;BME280;49121;38.932;-9.018;2023-02-28T01:00:59;111992.50;;;-145.11;75.74
63033;BME280;49121;38.932;-9.018;2023-02-28T01:03:00;111992.50;;;-145.11;76.52
63033;BME280;49121;38.932;-9.018;2023-02-28T01:05:01;111992.50;;;-145.11;77.10
63033;BME280;49121;38.932;-9.018;2023-02-28T01:07:04;111992.50;;;-145.11;77.83
63033;BME280;49121;38.932;-9.018;2023-02-28T01:09:05;111992.50;;;-145.11;78.20
63033;BME280;49121;38.932;-9.018;2023-02-28T01:11:08;111992.50;;;-145.11;78.55
63033;BME280;49121;38.932;-9.018;2023-02-28T01:13:10;111992.50;;;-145.11;78.68
63033;BME280;49121;38.932;-9.018;2023-02-28T01:15:13;111992.50;;;-145.11;79.30
63033;BME280;49121;38.932;-9.018;2023-02-28T01:17:14;111992.50;;;-145.11;79.64
63033;BME280;49121;38.932;-9.018;2023-02-28T01:19:15;111992.50;;;-145.11;80.03
63033;BME280;49121;38.932;-9.018;2023-02-28T01:21:18;111992.50;;;-145.11;80.63
63033;BME280;49121;38.932;-9.018;2023-02-28T01:23:20;111992.50;;;-145.11;80.92
63033;BME280;49121;38.932;-9.018;2023-02-28T01:25:23;111992.50;;;-145.11;80.67
63033;BME280;49121;38.932;-9.018;2023-02-28T01:27:24;111992.50;;;-145.11;80.90
63033;BME280;49121;38.932;-9.018;2023-02-28T01:29:26;111992.50;;;-145.11;81.64
63033;BME280;49121;38.932;-9.018;2023-02-28T01:31:27;111992.50;;;-145.11;82.28
63033;BME280;49121;38.932;-9.018;2023-02-28T01:33:31;111992.50;;;-145.11;83.02
63033;BME280;49121;38.932;-9.018;2023-02-28T01:35:35;111992.50;;;-145.11;83.29
63033;BME280;49121;38.932;-9.018;2023-02-28T01:37:48;111992.50;;;-145.11;83.07
63033;BME280;49121;38.932;-9.018;2023-02-28T01:39:48;111992.50;;;-145.11;83.37
63033;BME280;49121;38.932;-9.018;2023-02-28T01:41:49;111992.50;;;-145.11;83.55
63033;BME280;49121;38.932;-9.018;2023-02-28T01:45:55;111992.50;;;-145.11;83.67
63033;BME280;49121;38.932;-9.018;2023-02-28T01:48:02;111992.50;;;-145.11;83.87
63033;BME280;49121;38.932;-9.018;2023-02-28T01:50:06;111992.50;;;-145.11;84.31
63033;BME280;49121;38.932;-9.018;2023-02-28T01:52:13;111992.50;;;-145.11;84.33
63033;BME280;49121;38.932;-9.018;2023-02-28T01:54:25;111992.50;;;-145.11;84.44
63033;BME280;49121;38.932;-9.018;2023-02-28T01:56:30;111992.50;;;-145.11;84.75
63033;BME280;49121;38.932;-9.018;2023-02-28T01:58:34;111992.50;;;-145.11;84.64
63033;BME280;49121;38.932;-9.018;2023-02-28T02:00:35;111992.50;;;-145.11;84.10
63033;BME280;49121;38.932;-9.018;2023-02-28T02:02:37;111992.50;;;-145.11;84.11
63033;BME280;49121;38.932;-9.018;2023-02-28T02:04:42;111992.50;;;-145.11;84.38
63033;BME280;49121;38.932;-9.018;2023-02-28T02:06:47;111992.50;;;-145.11;84.79
63033;BME280;49121;38.932;-9.018;2023-02-28T02:08:48;111992.50;;;-145.11;84.92
63033;BME280;49121;38.932;-9.018;2023-02-28T02:10:52;111992.50;;;-145.11;84.76
63033;BME280;49121;38.932;-9.018;2023-02-28T02:15:21;111992.50;;;-145.11;84.48
63033;BME280;49121;38.932;-9.018;2023-02-28T02:17:35;111992.50;;;-145.11;84.75
63033;BME280;49121;38.932;-9.018;2023-02-28T02:20:03;111992.50;;;-145.11;84.88
63033;BME280;49121;38.932;-9.018;2023-02-28T02:31:51;111992.50;;;-145.11;84.33
63033;BME280;49121;38.932;-9.018;2023-02-28T02:36:33;111992.50;;;-145.11;84.22
63033;BME280;49121;38.932;-9.018;2023-02-28T02:38:45;111992.50;;;-145.11;84.27
63033;BME280;49121;38.932;-9.018;2023-02-28T02:41:20;111992.50;;;-145.11;84.46
63033;BME280;49121;38.932;-9.018;2023-02-28T02:43:36;111992.50;;;-145.11;84.09
63033;BME280;49121;38.932;-9.018;2023-02-28T02:45:49;111992.50;;;-145.11;83.23
63033;BME280;49121;38.932;-9.018;2023-02-28T02:47:58;111992.50;;;-145.11;82.34
63033;BME280;49121;38.932;-9.018;2023-02-28T02:50:04;111992.50;;;-145.11;81.90
63033;BME280;49121;38.932;-9.018;2023-02-28T02:52:11;111992.50;;;-145.11;81.86
63033;BME280;49121;38.932;-9.018;2023-02-28T02:54:19;111992.50;;;-145.11;82.67
63033;BME280;49121;38.932;-9.018;2023-02-28T02:56:25;111992.50;;;-145.11;83.37
63033;BME280;49121;38.932;-9.018;2023-02-28T02:58:30;111992.50;;;-145.11;83.01
63033;BME280;49121;38.932;-9.018;2023-02-28T03:00:40;111992.50;;;-145.11;83.34
63033;BME280;49121;38.932;-9.018;2023-02-28T03:02:45;111992.50;;;-145.11;83.43
63033;BME280;49121;38.932;-9.018;2023-02-28T03:05:00;111992.50;;;-145.11;83.68
63033;BME280;49121;38.932;-9.018;2023-02-28T03:07:02;111992.50;;;-145.11;83.77
63033;BME280;49121;38.932;-9.018;2023-02-28T03:09:03;111992.50;;;-145.11;84.25
63033;BME280;49121;38.932;-9.018;2023-02-28T03:11:13;111992.50;;;-145.11;84.79
63033;BME280;49121;38.932;-9.018;2023-02-28T03:21:01;111992.50;;;-145.11;85.54
63033;BME280;49121;38.932;-9.018;2023-02-28T03:23:32;111992.50;;;-145.11;84.81
63033;BME280;49121;38.932;-9.018;2023-02-28T03:25:49;111992.50;;;-145.11;84.82
63033;BME280;49121;38.932;-9.018;2023-02-28T03:28:11;111992.50;;;-145.11;84.95
63033;BME280;49121;38.932;-9.018;2023-02-28T03:34:46;111992.50;;;-145.11;84.94
63033;BME280;49121;38.932;-9.018;2023-02-28T03:36:52;111992.50;;;-145.11;85.32
63033;BME280;49121;38.932;-9.018;2023-02-28T03:39:05;111992.50;;;-145.11;85.52
63033;BME280;49121;38.932;-9.018;2023-02-28T03:41:13;111992.50;;;-145.11;85.93
63033;BME280;49121;38.932;-9.018;2023-02-28T03:43:20;111992.50;;;-145.11;86.56
63033;BME280;49121;38.932;-9.018;2023-02-28T03:45:26;111992.50;;;-145.11;86.94
63033;BME280;49121;38.932;-9.018;2023-02-28T03:47:55;111992.50;;;-145.11;86.90
63033;BME280;49121;38.932;-9.018;2023-02-28T03:50:11;111992.50;;;-145.11;87.32
63033;BME280;49121;38.932;-9.018;2023-02-28T03:52:14;111992.50;;;-145.11;87.37
63033;BME280;49121;38.932;-9.018;2023-02-28T03:54:22;111992.50;;;-145.11;87.51
63033;BME280;49121;38.932;-9.018;2023-02-28T03:56:32;111992.50;;;-145.11;87.95
63033;BME280;49121;38.932;-9.018;2023-02-28T04:03:19;111992.50;;;-145.11;88.44
63033;BME280;49121;38.932;-9.018;2023-02-28T04:05:21;111992.50;;;-145.11;88.70
63033;BME280;49121;38.932;-9.018;2023-02-28T04:07:21;111992.50;;;-145.11;88.55
63033;BME280;49121;38.932;-9.018;2023-02-28T04:09:22;111992.50;;;-145.11;88.87
63033;BME280;49121;38.932;-9.018;2023-02-28T04:13:32;111992.50;;;-145.11;89.20
63033;BME280;49121;38.932;-9.018;2023-02-28T04:15:32;111992.50;;;-145.11;88.86
63033;BME280;49121;38.932;-9.018;2023-02-28T04:17:33;111992.50;;;-145.11;89.11
63033;BME280;49121;38.932;-9.018;2023-02-28T04:19:34;111992.50;;;-145.11;89.26
63033;BME280;49121;38.932;-9.018;2023-02-28T04:21:39;111992.50;;;-145.11;88.95
63033;BME280;49121;38.932;-9.018;2023-02-28T04:23:40;111992.50;;;-145.11;89.09
63033;BME280;49121;38.932;-9.018;2023-02-28T04:25:41;111992.50;;;-145.11;88.43
63033;BME280;49121;38.932;-9.018;2023-02-28T04:27:41;111992.50;;;-145.11;88.05
63033;BME280;49121;38.932;-9.018;2023-02-28T04:29:44;111992.50;;;-145.11;88.66
63033;BME280;49121;38.932;-9.018;2023-02-28T04:31:45;111992.50;;;-145.11;88.69
63033;BME280;49121;38.932;-9.018;2023-02-28T04:33:46;111992.50;;;-145.11;88.98
63033;BME280;49121;38.932;-9.018;2023-02-28T04:35:47;111992.50;;;-145.11;89.04
63033;BME280;49121;38.932;-9.018;2023-02-28T04:37:47;111992.50;;;-145.11;89.01
63033;BME280;49121;38.932;-9.018;2023-02-28T04:39:48;111992.50;;;-145.11;88.92
63033;BME280;49121;38.932;-9.018;2023-02-28T04:41:49;111992.50;;;-145.11;88.60
63033;BME280;49121;38.932;-9.018;2023-02-28T04:43:51;111992.50;;;-145.11;89.62
63033;BME280;49121;38.932;-9.018;2023-02-28T04:45:54;111992.50;;;-145.11;89.52
63033;BME280;49121;38.932;-9.018;2023-02-28T04:47:58;111992.50;;;-145.11;89.42
63033;BME280;49121;38.932;-9.018;2023-02-28T04:49:58;111992.50;;;-145.11;88.84
63033;BME280;49121;38.932;-9.018;2023-02-28T04:51:59;111992.50;;;-145.11;88.98
63033;BME280;49121;38.932;-9.018;2023-02-28T04:54:00;111992.50;;;-145.11;89.04
63033;BME280;49121;38.932;-9.018;2023-02-28T04:56:00;111992.50;;;-145.11;89.17
63033;BME280;49121;38.932;-9.018;2023-02-28T04:58:01;111992.50;;;-145.11;89.32
63033;BME280;49121;38.932;-9.018;2023-02-28T05:00:02;111992.50;;;-145.11;89.01
63033;BME280;49121;38.932;-9.018;2023-02-28T05:02:15;111992.50;;;-145.11;88.38
63033;BME280;49121;38.932;-9.018;2023-02-28T05:04:16;111992.50;;;-145.11;88.38
63033;BME280;49121;38.932;-9.018;2023-02-28T05:06:17;111992.50;;;-145.11;88.64
63033;BME280;49121;38.932;-9.018;2023-02-28T05:08:18;111992.50;;;-145.11;88.36
63033;BME280;49121;38.932;-9.018;2023-02-28T05:10:19;111992.50;;;-145.11;88.08
63033;BME280;49121;38.932;-9.018;2023-02-28T05:12:19;111992.50;;;-145.11;88.73
63033;BME280;49121;38.932;-9.018;2023-02-28T05:14:20;111992.50;;;-145.11;88.84
63033;BME280;49121;38.932;-9.018;2023-02-28T05:16:21;111992.50;;;-145.11;88.76
63033;BME280;49121;38.932;-9.018;2023-02-28T05:18:22;111992.50;;;-145.11;89.14
63033;BME280;49121;38.932;-9.018;2023-02-28T05:20:23;111992.50;;;-145.11;89.09
63033;BME280;49121;38.932;-9.018;2023-02-28T05:22:23;111992.50;;;-145.11;89.31
63033;BME280;49121;38.932;-9.018;2023-02-28T05:24:24;111992.50;;;-145.11;89.12
63033;BME280;49121;38.932;-9.018;2023-02-28T05:26:26;111992.50;;;-145.11;89.06
63033;BME280;49121;38.932;-9.018;2023-02-28T05:28:27;111992.50;;;-145.11;88.52
63033;BME280;49121;38.932;-9.018;2023-02-28T05:30:27;111992.50;;;-145.11;87.96
63033;BME280;49121;38.932;-9.018;2023-02-28T05:32:28;111992.50;;;-145.11;87.17
63033;BME280;49121;38.932;-9.018;2023-02-28T05:34:28;111992.50;;;-145.11;86.98
63033;BME280;49121;38.932;-9.018;2023-02-28T05:36:29;111992.50;;;-145.11;85.51
63033;BME280;49121;38.932;-9.018;2023-02-28T05:38:30;111992.50;;;-145.11;82.11
63033;BME280;49121;38.932;-9.018;2023-02-28T05:40:30;111992.50;;;-145.11;80.38
63033;BME280;49121;38.932;-9.018;2023-02-28T05:42:31;111992.50;;;-145.11;80.64
63033;BME280;49121;38.932;-9.018;2023-02-28T05:44:32;111992.50;;;-145.11;80.66
63033;BME280;49121;38.932;-9.018;2023-02-28T05:46:33;111992.50;;;-145.11;80.89
63033;BME280;49121;38.932;-9.018;2023-02-28T05:48:35;111992.50;;;-145.11;80.89
63033;BME280;49121;38.932;-9.018;2023-02-28T05:50:36;111992.50;;;-145.11;81.03
63033;BME280;49121;38.932;-9.018;2023-02-28T05:52:36;111992.50;;;-145.11;80.82
63033;BME280;49121;38.932;-9.018;2023-02-28T05:54:37;111992.50;;;-145.11;80.89
63033;BME280;49121;38.932;-9.018;2023-02-28T05:56:38;111992.50;;;-145.11;80.99
63033;BME280;49121;38.932;-9.018;2023-02-28T05:58:40;111992.50;;;-145.11;80.95
63033;BME280;49121;38.932;-9.018;2023-02-28T06:00:41;111992.50;;;-145.11;81.01
63033;BME280;49121;38.932;-9.018;2023-02-28T06:02:41;111992.50;;;-145.11;81.16
63033;BME280;49121;38.932;-9.018;2023-02-28T06:09:58;111992.50;;;-145.11;81.78
63033;BME280;49121;38.932;-9.018;2023-02-28T06:11:59;111992.50;;;-145.11;82.24
63033;BME280;49121;38.932;-9.018;2023-02-28T06:14:00;111992.50;;;-145.11;82.02
63033;BME280;49121;38.932;-9.018;2023-02-28T06:16:02;111992.50;;;-145.11;82.36
63033;BME280;49121;38.932;-9.018;2023-02-28T06:18:02;111992.50;;;-145.11;82.84
63033;BME280;49121;38.932;-9.018;2023-02-28T06:20:05;111992.50;;;-145.11;82.90
63033;BME280;49121;38.932;-9.018;2023-02-28T06:22:05;111992.50;;;-145.11;82.93
63033;BME280;49121;38.932;-9.018;2023-02-28T06:24:06;111992.50;;;-145.11;83.13
63033;BME280;49121;38.932;-9.018;2023-02-28T06:26:07;111992.50;;;-145.11;82.80
63033;BME280;49121;38.932;-9.018;2023-02-28T06:28:07;111992.50;;;-145.11;82.43
63033;BME280;49121;38.932;-9.018;2023-02-28T06:30:11;111992.50;;;-145.11;82.83
63033;BME280;49121;38.932;-9.018;2023-02-28T06:32:12;111992.50;;;-145.11;81.90
63033;BME280;49121;38.932;-9.018;2023-02-28T06:34:13;111992.50;;;-145.11;82.07
63033;BME280;49121;38.932;-9.018;2023-02-28T06:36:15;111992.50;;;-145.11;82.21
63033;BME280;49121;38.932;-9.018;2023-02-28T06:38:16;111992.50;;;-145.11;82.50
63033;BME280;49121;38.932;-9.018;2023-02-28T06:40:16;111992.50;;;-145.11;81.94
63033;BME280;49121;38.932;-9.018;2023-02-28T06:42:22;111992.50;;;-145.11;81.49
63033;BME280;49121;38.932;-9.018;2023-02-28T06:44:25;111992.50;;;-145.11;80.55
63033;BME280;49121;38.932;-9.018;2023-02-28T06:46:25;111992.50;;;-145.11;78.02
63033;BME280;49121;38.932;-9.018;2023-02-28T06:48:27;111992.50;;;-145.11;78.03
63033;BME280;49121;38.932;-9.018;2023-02-28T06:50:27;111992.50;;;-145.11;78.04
63033;BME280;49121;38.932;-9.018;2023-02-28T06:52:29;111992.50;;;-145.11;78.77
63033;BME280;49121;38.932;-9.018;2023-02-28T06:54:30;111992.50;;;-145.11;78.37
63033;BME280;49121;38.932;-9.018;2023-02-28T06:56:31;111992.50;;;-145.11;78.60
63033;BME280;49121;38.932;-9.018;2023-02-28T06:58:31;111992.50;;;-145.11;78.75
63033;BME280;49121;38.932;-9.018;2023-02-28T07:00:32;111992.50;;;-145.11;78.93
63033;BME280;49121;38.932;-9.018;2023-02-28T07:02:34;111992.50;;;-145.11;78.05
63033;BME280;49121;38.932;-9.018;2023-02-28T07:04:35;111992.50;;;-145.11;76.37
63033;BME280;49121;38.932;-9.018;2023-02-28T07:06:36;111992.50;;;-145.11;70.44
63033;BME280;49121;38.932;-9.018;2023-02-28T07:08:37;111992.50;;;-145.11;69.55
63033;BME280;49121;38.932;-9.018;2023-02-28T07:10:59;111992.50;;;-145.11;69.63
63033;BME280;49121;38.932;-9.018;2023-02-28T07:13:01;111992.50;;;-145.11;69.08
63033;BME280;49121;38.932;-9.018;2023-02-28T07:15:01;111992.50;;;-145.11;67.69
63033;BME280;49121;38.932;-9.018;2023-02-28T07:17:03;111992.50;;;-145.11;67.80
63033;BME280;49121;38.932;-9.018;2023-02-28T07:19:04;111992.50;;;-145.11;65.42
63033;BME280;49121;38.932;-9.018;2023-02-28T07:21:07;111992.50;;;-145.11;66.19
63033;BME280;49121;38.932;-9.018;2023-02-28T07:23:08;111992.50;;;-145.11;67.69
63033;BME280;49121;38.932;-9.018;2023-02-28T07:25:09;111992.50;;;-145.11;67.70
63033;BME280;49121;38.932;-9.018;2023-02-28T07:27:10;111992.50;;;-145.11;68.52
63033;BME280;49121;38.932;-9.018;2023-02-28T07:29:11;111992.50;;;-145.11;68.62
63033;BME280;49121;38.932;-9.018;2023-02-28T07:31:13;111992.50;;;-145.11;68.51
63033;BME280;49121;38.932;-9.018;2023-02-28T07:33:16;111992.50;;;-145.11;69.83
63033;BME280;49121;38.932;-9.018;2023-02-28T07:35:17;111992.50;;;-145.11;70.00
63033;BME280;49121;38.932;-9.018;2023-02-28T07:37:17;111992.50;;;-145.11;69.60
63033;BME280;49121;38.932;-9.018;2023-02-28T07:39:20;111992.50;;;-145.11;66.27
63033;BME280;49121;38.932;-9.018;2023-02-28T07:41:22;111992.50;;;-145.11;66.07
63033;BME280;49121;38.932;-9.018;2023-02-28T07:43:24;111992.50;;;-145.11;66.34
63033;BME280;49121;38.932;-9.018;2023-02-28T07:45:24;111992.50;;;-145.11;66.52
63033;BME280;49121;38.932;-9.018;2023-02-28T07:47:25;111992.50;;;-145.11;66.39
63033;BME280;49121;38.932;-9.018;2023-02-28T07:49:26;111992.50;;;-145.11;63.13
63033;BME280;49121;38.932;-9.018;2023-02-28T07:51:26;111992.50;;;-145.11;63.27
63033;BME280;49121;38.932;-9.018;2023-02-28T07:53:28;111992.50;;;-145.11;61.10
63033;BME280;49121;38.932;-9.018;2023-02-28T07:55:28;111992.50;;;-145.11;62.22
63033;BME280;49121;38.932;-9.018;2023-02-28T07:57:29;111992.50;;;-145.11;61.64
63033;BME280;49121;38.932;-9.018;2023-02-28T07:59:30;111992.50;;;-145.11;61.79
63033;BME280;49121;38.932;-9.018;2023-02-28T08:01:31;111992.50;;;-145.11;56.51
63033;BME280;49121;38.932;-9.018;2023-02-28T08:03:32;111992.50;;;-145.11;56.61
63033;BME280;49121;38.932;-9.018;2023-02-28T08:05:33;111992.50;;;-145.11;53.97
63033;BME280;49121;38.932;-9.018;2023-02-28T08:07:38;111992.50;;;-145.11;53.64
63033;BME280;49121;38.932;-9.018;2023-02-28T08:09:41;111992.50;;;-145.11;52.90
63033;BME280;49121;38.932;-9.018;2023-02-28T08:12:00;111992.50;;;-145.11;52.32
63033;BME280;49121;38.932;-9.018;2023-02-28T08:14:01;111992.50;;;-145.11;50.41
63033;BME280;49121;38.932;-9.018;2023-02-28T08:16:02;111992.50;;;-145.11;50.89
63033;BME280;49121;38.932;-9.018;2023-02-28T08:18:03;111992.50;;;-145.11;51.95
63033;BME280;49121;38.932;-9.018;2023-02-28T08:20:06;111992.50;;;-145.11;53.42
63033;BME280;49121;38.932;-9.018;2023-02-28T08:22:07;111992.50;;;-145.11;55.82
63033;BME280;49121;38.932;-9.018;2023-02-28T08:24:08;111992.50;;;-145.11;56.92
63033;BME280;49121;38.932;-9.018;2023-02-28T08:26:09;111992.50;;;-145.11;55.00
63033;BME280;49121;38.932;-9.018;2023-02-28T08:28:10;111992.50;;;-145.11;52.18
63033;BME280;49121;38.932;-9.018;2023-02-28T08:30:12;111992.50;;;-145.11;50.81
63033;BME280;49121;38.932;-9.018;2023-02-28T08:32:13;111992.50;;;-145.11;50.31
63033;BME280;49121;38.932;-9.018;2023-02-28T08:34:15;111992.50;;;-145.11;50.50
63033;BME280;49121;38.932;-9.018;2023-02-28T08:36:16;111992.50;;;-145.11;50.28
63033;BME280;49121;38.932;-9.018;2023-02-28T08:38:17;111992.50;;;-145.11;48.56
63033;BME280;49121;38.932;-9.018;2023-02-28T08:40:18;111992.50;;;-145.11;49.66
63033;BME280;49121;38.932;-9.018;2023-02-28T08:42:19;111992.50;;;-145.11;51.47
63033;BME280;49121;38.932;-9.018;2023-02-28T08:44:21;111992.50;;;-145.11;50.80
63033;BME280;49121;38.932;-9.018;2023-02-28T08:46:22;111992.50;;;-145.11;50.45
63033;BME280;49121;38.932;-9.018;2023-02-28T08:48:24;111992.50;;;-145.11;47.32
63033;BME280;49121;38.932;-9.018;2023-02-28T08:50:25;111992.50;;;-145.11;45.36
63033;BME280;49121;38.932;-9.018;2023-02-28T08:52:25;111992.50;;;-145.11;45.42
63033;BME280;49121;38.932;-9.018;2023-02-28T08:54:26;111992.50;;;-145.11;42.55
63033;BME280;49121;38.932;-9.018;2023-02-28T08:56:29;111992.50;;;-145.11;42.90
63033;BME280;49121;38.932;-9.018;2023-02-28T08:58:30;111992.50;;;-145.11;42.42
63033;BME280;49121;38.932;-9.018;2023-02-28T09:00:31;111992.50;;;-145.11;41.07
63033;BME280;49121;38.932;-9.018;2023-02-28T09:02:32;111992.50;;;-145.11;41.07
63033;BME280;49121;38.932;-9.018;2023-02-28T09:04:33;111992.50;;;-145.11;40.99
63033;BME280;49121;38.932;-9.018;2023-02-28T09:06:34;111992.50;;;-145.11;41.99
63033;BME280;49121;38.932;-9.018;2023-02-28T09:08:35;111992.50;;;-145.11;41.43
63033;BME280;49121;38.932;-9.018;2023-02-28T09:10:37;111992.50;;;-145.11;41.05
63033;BME280;49121;38.932;-9.018;2023-02-28T09:12:38;111992.50;;;-145.11;40.79
63033;BME280;49121;38.932;-9.018;2023-02-28T09:14:39;111992.50;;;-145.11;41.82
63033;BME280;49121;38.932;-9.018;2023-02-28T09:16:40;111992.50;;;-145.11;41.32
63033;BME280;49121;38.932;-9.018;2023-02-28T09:18:40;111992.50;;;-145.11;41.56
63033;BME280;49121;38.932;-9.018;2023-02-28T09:20:42;111992.50;;;-145.11;41.68
63033;BME280;49121;38.932;-9.018;2023-02-28T09:22:43;111992.50;;;-145.11;41.82
63033;BME280;49121;38.932;-9.018;2023-02-28T09:24:44;111992.50;;;-145.11;41.10
63033;BME280;49121;38.932;-9.018;2023-02-28T09:26:46;111992.50;;;-145.11;39.28
63033;BME280;49121;38.932;-9.018;2023-02-28T09:28:47;111992.50;;;-145.11;39.76
63033;BME280;49121;38.932;-9.018;2023-02-28T09:30:50;111992.50;;;-145.11;39.69
63033;BME280;49121;38.932;-9.018;2023-02-28T09:32:53;111992.50;;;-145.11;40.13
63033;BME280;49121;38.932;-9.018;2023-02-28T09:34:54;111992.50;;;-145.11;40.56
63033;BME280;49121;38.932;-9.018;2023-02-28T09:36:58;111992.50;;;-145.11;39.72
63033;BME280;49121;38.932;-9.018;2023-02-28T09:38:58;111992.50;;;-145.11;39.58
63033;BME280;49121;38.932;-9.018;2023-02-28T09:41:03;111992.50;;;-145.11;39.46
63033;BME280;49121;38.932;-9.018;2023-02-28T09:43:05;111992.50;;;-145.11;39.22
63033;BME280;49121;38.932;-9.018;2023-02-28T09:45:23;111992.50;;;-145.11;39.27
63033;BME280;49121;38.932;-9.018;2023-02-28T09:47:33;111992.50;;;-145.11;39.37
63033;BME280;49121;38.932;-9.018;2023-02-28T09:49:40;111992.50;;;-145.11;39.64
63033;BME280;49121;38.932;-9.018;2023-02-28T09:51:59;111992.50;;;-145.11;38.73
63033;BME280;49121;38.932;-9.018;2023-02-28T09:54:03;111992.50;;;-145.11;39.15
63033;BME280;49121;38.932;-9.018;2023-02-28T09:56:19;111992.50;;;-145.11;38.25
63033;BME280;49121;38.932;-9.018;2023-02-28T09:58:56;111992.50;;;-145.11;38.00
63033;BME280;49121;38.932;-9.018;2023-02-28T10:01:25;111992.50;;;-145.11;37.80
63033;BME280;49121;38.932;-9.018;2023-02-28T10:06:11;111992.50;;;-145.11;36.04
63033;BME280;49121;38.932;-9.018;2023-02-28T10:08:16;111992.50;;;-145.11;35.90
63033;BME280;49121;38.932;-9.018;2023-02-28T10:10:23;111992.50;;;-145.11;35.19
63033;BME280;49121;38.932;-9.018;2023-02-28T10:12:27;111992.50;;;-145.11;35.64
63033;BME280;49121;38.932;-9.018;2023-02-28T10:14:32;111992.50;;;-145.11;34.97
63033;BME280;49121;38.932;-9.018;2023-02-28T10:17:02;111992.50;;;-145.11;35.43
63033;BME280;49121;38.932;-9.018;2023-02-28T10:19:21;111992.50;;;-145.11;34.98
63033;BME280;49121;38.932;-9.018;2023-02-28T10:23:38;111992.50;;;-145.11;33.36
63033;BME280;49121;38.932;-9.018;2023-02-28T10:25:39;111992.50;;;-145.11;33.85
63033;BME280;49121;38.932;-9.018;2023-02-28T10:27:41;111992.50;;;-145.11;34.12
63033;BME280;49121;38.932;-9.018;2023-02-28T10:29:46;111992.50;;;-145.11;34.65
63033;BME280;49121;38.932;-9.018;2023-02-28T10:31:48;111992.50;;;-145.11;33.82
63033;BME280;49121;38.932;-9.018;2023-02-28T10:33:52;111992.50;;;-145.11;33.50
63033;BME280;49121;38.932;-9.018;2023-02-28T10:35:57;111992.50;;;-145.11;33.71
63033;BME280;49121;38.932;-9.018;2023-02-28T10:38:00;111992.50;;;-145.11;35.25
63033;BME280;49121;38.932;-9.018;2023-02-28T10:40:34;111992.50;;;-145.11;36.13
63033;BME280;49121;38.932;-9.018;2023-02-28T10:42:35;111992.50;;;-145.11;36.04
63033;BME280;49121;38.932;-9.018;2023-02-28T10:44:39;111992.50;;;-145.11;36.36
63033;BME280;49121;38.932;-9.018;2023-02-28T10:46:40;111992.50;;;-145.11;37.02
63033;BME280;49121;38.932;-9.018;2023-02-28T10:48:46;111992.50;;;-145.11;36.09
63033;BME280;49121;38.932;-9.018;2023-02-28T10:50:53;111992.50;;;-145.11;36.43
63033;BME280;49121;38.932;-9.018;2023-02-28T10:55:28;111992.50;;;-145.11;36.77
63033;BME280;49121;38.932;-9.018;2023-02-28T10:57:30;111992.50;;;-145.11;36.26
63033;BME280;49121;38.932;-9.018;2023-02-28T10:59:32;111992.50;;;-145.11;37.03
63033;BME280;49121;38.932;-9.018;2023-02-28T11:01:46;111992.50;;;-145.11;37.30
63033;BME280;49121;38.932;-9.018;2023-02-28T11:03:53;111992.50;;;-145.11;37.11
63033;BME280;49121;38.932;-9.018;2023-02-28T11:05:53;111992.50;;;-145.11;37.24
63033;BME280;49121;38.932;-9.018;2023-02-28T11:10:04;111992.50;;;-145.11;35.63
63033;BME280;49121;38.932;-9.018;2023-02-28T11:12:20;111992.50;;;-145.11;36.97